createdAt,value
2018-09-29T00:00:20.803Z,15.15
2018-09-29T00:02:49.173Z,15.09
2018-09-29T00:05:17.625Z,15.05
2018-09-29T00:07:46.002Z,14.98
2018-09-29T00:10:14.394Z,15.02
2018-09-29T00:12:42.818Z,15.05
2018-09-29T00:15:11.203Z,15.05
2018-09-29T00:17:39.613Z,15.09
2018-09-29T00:20:08.024Z,15.10
2018-09-29T00:22:36.434Z,15.08
2018-09-29T00:25:04.925Z,15.15
2018-09-29T00:27:33.330Z,15.12
2018-09-29T00:30:01.938Z,15.07
2018-09-29T00:32:30.871Z,14.99
2018-09-29T00:34:59.302Z,15.00
2018-09-29T00:37:27.714Z,15.01
2018-09-29T00:39:56.124Z,14.95
2018-09-29T00:42:24.569Z,14.89
2018-09-29T00:44:52.997Z,14.88
2018-09-29T00:47:21.429Z,14.89
2018-09-29T00:49:49.826Z,14.83
2018-09-29T00:52:18.265Z,14.89
2018-09-29T00:54:46.702Z,14.82
2018-09-29T00:57:15.170Z,14.86
2018-09-29T00:59:43.590Z,14.81
2018-09-29T01:02:12.066Z,14.82
2018-09-29T01:04:40.498Z,14.81
2018-09-29T01:07:08.891Z,14.75
2018-09-29T01:09:37.313Z,14.71
2018-09-29T01:12:05.730Z,14.68
2018-09-29T01:14:34.390Z,14.66
2018-09-29T01:17:02.905Z,14.74
2018-09-29T01:19:31.341Z,14.71
2018-09-29T01:21:59.759Z,14.60
2018-09-29T01:24:29.281Z,14.55
2018-09-29T01:26:57.694Z,14.56
2018-09-29T01:29:26.114Z,14.57
2018-09-29T01:31:54.511Z,14.52
2018-09-29T01:34:22.969Z,14.49
2018-09-29T01:36:51.370Z,14.47
2018-09-29T01:39:19.798Z,14.51
2018-09-29T01:41:48.205Z,14.46
2018-09-29T01:44:16.633Z,14.43
2018-09-29T01:46:45.018Z,14.43
2018-09-29T01:49:13.430Z,14.43
2018-09-29T01:51:41.841Z,14.38
2018-09-29T01:54:10.295Z,14.40
2018-09-29T01:56:38.754Z,14.35
2018-09-29T01:59:07.220Z,14.36
2018-09-29T02:01:35.645Z,14.41
2018-09-29T02:04:04.066Z,14.38
2018-09-29T02:06:32.502Z,14.39
2018-09-29T02:09:00.901Z,14.37
2018-09-29T02:11:29.341Z,14.37
2018-09-29T02:13:57.729Z,14.33
2018-09-29T02:16:26.443Z,14.30
2018-09-29T02:18:54.857Z,14.25
2018-09-29T02:21:23.301Z,14.30
2018-09-29T02:23:51.697Z,14.25
2018-09-29T02:26:20.162Z,14.29
2018-09-29T02:28:48.634Z,14.26
2018-09-29T02:31:17.013Z,14.22
2018-09-29T02:33:45.407Z,14.14
2018-09-29T02:36:13.866Z,14.11
2018-09-29T02:38:42.286Z,14.11
2018-09-29T02:41:11.154Z,14.08
2018-09-29T02:43:39.546Z,14.02
2018-09-29T02:46:07.994Z,13.99
2018-09-29T02:48:36.390Z,13.97
2018-09-29T02:51:04.922Z,14.00
2018-09-29T02:53:33.325Z,13.96
2018-09-29T02:56:01.990Z,13.90
2018-09-29T02:58:30.445Z,13.90
2018-09-29T03:00:58.858Z,13.84
2018-09-29T03:03:27.310Z,13.81
2018-09-29T03:05:55.727Z,13.86
2018-09-29T03:08:24.142Z,13.83
2018-09-29T03:10:52.538Z,13.83
2018-09-29T03:13:21.258Z,13.80
2018-09-29T03:15:49.737Z,13.80
2018-09-29T03:18:18.183Z,13.79
2018-09-29T03:20:46.573Z,13.75
2018-09-29T03:23:15.010Z,13.76
2018-09-29T03:25:43.385Z,13.76
2018-09-29T03:28:11.837Z,13.71
2018-09-29T03:30:40.214Z,13.71
2018-09-29T03:33:08.626Z,13.72
2018-09-29T03:35:37.005Z,13.73
2018-09-29T03:38:05.650Z,13.69
2018-09-29T03:40:34.021Z,13.67
2018-09-29T03:43:02.955Z,13.67
2018-09-29T03:45:31.397Z,13.63
2018-09-29T03:47:59.774Z,13.61
2018-09-29T03:50:28.193Z,13.59
2018-09-29T03:52:56.570Z,13.63
2018-09-29T03:55:25.018Z,13.60
2018-09-29T03:57:53.392Z,13.50
2018-09-29T04:00:21.823Z,13.49
2018-09-29T04:02:50.186Z,13.44
2018-09-29T04:05:18.601Z,13.37
2018-09-29T04:07:46.965Z,13.36
2018-09-29T04:10:15.357Z,13.44
2018-09-29T04:12:43.734Z,13.41
2018-09-29T04:15:12.142Z,13.38
2018-09-29T04:17:40.518Z,13.39
2018-09-29T04:20:08.924Z,13.32
2018-09-29T04:22:37.283Z,13.34
2018-09-29T04:25:05.741Z,13.38
2018-09-29T04:27:34.126Z,13.31
2018-09-29T04:30:02.905Z,13.39
2018-09-29T04:32:31.306Z,13.31
2018-09-29T04:34:59.713Z,13.23
2018-09-29T04:37:28.085Z,13.23
2018-09-29T04:39:56.567Z,13.22
2018-09-29T04:42:24.927Z,13.21
2018-09-29T04:44:53.294Z,13.16
2018-09-29T04:47:21.714Z,13.19
2018-09-29T04:49:50.094Z,13.24
2018-09-29T04:52:18.518Z,13.24
2018-09-29T04:54:46.881Z,13.26
2018-09-29T04:57:15.301Z,13.29
2018-09-29T04:59:43.674Z,13.26
2018-09-29T05:02:12.101Z,13.25
2018-09-29T05:04:40.481Z,13.31
2018-09-29T05:07:08.882Z,13.27
2018-09-29T05:09:37.321Z,13.32
2018-09-29T05:12:05.753Z,13.33
2018-09-29T05:14:34.134Z,13.29
2018-09-29T05:17:02.977Z,13.29
2018-09-29T05:19:31.337Z,13.31
2018-09-29T05:21:59.753Z,13.35
2018-09-29T05:24:28.131Z,13.33
2018-09-29T05:26:56.549Z,13.37
2018-09-29T05:29:24.934Z,13.31
2018-09-29T05:31:53.305Z,13.34
2018-09-29T05:34:21.735Z,13.37
2018-09-29T05:36:50.118Z,13.33
2018-09-29T05:39:19.710Z,13.31
2018-09-29T05:41:48.435Z,13.31
2018-09-29T05:44:17.177Z,13.27
2018-09-29T05:46:46.352Z,13.30
2018-09-29T05:49:15.135Z,13.28
2018-09-29T05:51:44.186Z,13.29
2018-09-29T05:54:13.225Z,13.26
2018-09-29T05:56:42.127Z,13.35
2018-09-29T05:59:13.611Z,13.33
2018-09-29T06:01:42.126Z,13.35
2018-09-29T06:04:10.735Z,13.39
2018-09-29T06:06:39.314Z,13.37
2018-09-29T06:09:09.177Z,13.41
2018-09-29T06:11:40.823Z,13.44
2018-09-29T06:14:15.999Z,13.47
2018-09-29T06:16:44.668Z,13.54
2018-09-29T06:19:13.323Z,13.51
2018-09-29T06:21:43.222Z,13.55
2018-09-29T06:24:11.723Z,13.55
2018-09-29T06:26:40.146Z,13.60
2018-09-29T06:29:08.801Z,13.61
2018-09-29T06:31:37.355Z,13.60
2018-09-29T06:34:06.240Z,13.58
2018-09-29T06:36:55.273Z,13.59
2018-09-29T06:39:23.758Z,13.59
2018-09-29T06:41:52.210Z,13.60
2018-09-29T06:44:20.650Z,13.66
2018-09-29T06:46:49.134Z,13.76
2018-09-29T06:49:17.581Z,13.78
2018-09-29T07:30:06.452Z,14.39
2018-09-29T07:32:34.974Z,14.35
2018-09-29T07:35:03.527Z,14.40
2018-09-29T07:37:32.000Z,14.54
2018-09-29T07:43:03.761Z,14.67
2018-09-29T07:45:32.206Z,14.77
2018-09-29T07:48:00.677Z,14.80
2018-09-29T07:50:38.055Z,14.88
2018-09-29T07:53:06.595Z,14.90
2018-09-29T07:55:35.084Z,14.92
2018-09-29T07:58:03.588Z,14.97
2018-09-29T08:00:32.019Z,15.02
2018-09-29T08:03:01.072Z,15.11
2018-09-29T08:05:29.491Z,15.17
2018-09-29T08:16:58.824Z,15.36
2018-09-29T08:19:28.522Z,15.45
2018-09-29T08:21:58.213Z,15.52
2018-09-29T08:24:27.864Z,15.48
2018-09-29T08:26:57.810Z,15.40
2018-09-29T08:29:27.617Z,15.42
2018-09-29T08:31:57.384Z,15.56
2018-09-29T08:34:27.163Z,15.65
2018-09-29T08:36:56.876Z,15.72
2018-09-29T08:39:29.187Z,15.77
2018-09-29T08:41:59.596Z,15.86
2018-09-29T08:44:29.209Z,16.15
2018-09-29T08:46:58.975Z,16.29
2018-09-29T08:49:29.173Z,16.26
2018-09-29T08:51:58.893Z,16.11
2018-09-29T08:54:28.897Z,16.09
2018-09-29T08:56:58.751Z,16.10
2018-09-29T08:59:28.416Z,16.19
2018-09-29T09:01:58.937Z,16.38
2018-09-29T09:04:28.709Z,16.65
2018-09-29T09:06:58.572Z,16.82
2018-09-29T09:09:28.584Z,16.68
2018-09-29T09:11:58.136Z,16.73
2018-09-29T09:14:34.552Z,16.74
2018-09-29T09:17:04.259Z,16.77
2018-09-29T09:19:34.063Z,16.89
2018-09-29T09:22:03.932Z,16.93
2018-09-29T09:33:10.318Z,17.21
2018-09-29T09:35:38.889Z,17.22
2018-09-29T09:38:07.369Z,17.28
2018-09-29T09:40:35.996Z,17.38
2018-09-29T11:22:16.098Z,17.72
2018-09-29T11:24:46.939Z,17.63
2018-09-29T11:27:15.727Z,17.54
2018-09-29T11:56:57.495Z,17.57
2018-09-29T11:59:26.061Z,17.52
2018-09-29T12:01:54.576Z,17.51
2018-09-29T12:04:22.969Z,17.40
2018-09-29T12:06:51.472Z,17.35
2018-09-29T12:09:19.881Z,17.42
2018-09-29T12:11:48.345Z,17.51
2018-09-29T12:14:16.765Z,17.48
2018-09-29T12:16:45.711Z,17.41
2018-09-29T12:19:14.771Z,17.40
2018-09-29T12:21:44.061Z,17.35
2018-09-29T12:24:12.644Z,17.23
2018-09-29T12:26:41.199Z,17.30
2018-09-29T12:29:09.696Z,17.30
2018-09-29T12:31:38.141Z,17.33
2018-09-29T12:34:06.576Z,17.39
2018-09-29T12:36:35.021Z,17.42
2018-09-29T12:39:12.090Z,17.40
2018-09-29T12:41:40.517Z,17.51
2018-09-29T12:44:09.045Z,17.52
2018-09-29T12:46:37.453Z,17.43
2018-09-29T12:49:06.009Z,17.43
2018-09-29T12:51:34.483Z,17.48
2018-09-29T12:54:02.948Z,17.59
2018-09-29T12:56:31.415Z,17.58
2018-09-29T12:58:59.905Z,17.56
2018-09-29T13:01:28.249Z,17.60
2018-09-29T13:03:56.772Z,17.70
2018-09-29T13:06:25.176Z,17.74
2018-09-29T13:08:53.617Z,17.81
2018-09-29T13:11:22.068Z,17.87
2018-09-29T13:13:50.512Z,17.97
2018-09-29T13:16:18.918Z,17.96
2018-09-29T13:18:47.349Z,18.12
2018-09-29T13:21:15.759Z,18.23
2018-09-29T13:23:44.234Z,18.32
2018-09-29T13:26:12.672Z,18.34
2018-09-29T13:28:41.100Z,18.47
2018-09-29T13:31:09.603Z,18.61
2018-09-29T13:33:38.073Z,18.68
2018-09-29T13:36:06.535Z,18.78
2018-09-29T13:38:34.999Z,18.69
2018-09-29T13:41:04.274Z,18.80
2018-09-29T13:43:32.770Z,18.79
2018-09-29T13:46:01.330Z,18.83
2018-09-29T13:48:29.637Z,18.99
2018-09-29T13:50:58.445Z,19.25
2018-09-29T13:53:26.869Z,19.52
2018-09-29T13:55:55.434Z,19.53
2018-09-29T13:58:24.001Z,19.64
2018-09-29T14:00:53.026Z,19.55
2018-09-29T14:03:21.481Z,19.79
2018-09-29T14:05:50.016Z,19.90
2018-09-29T14:08:18.611Z,20.12
2018-09-29T14:10:47.413Z,20.28
2018-09-29T14:13:15.826Z,20.49
2018-09-29T14:15:44.338Z,20.51
2018-09-29T14:18:12.874Z,20.76
2018-09-29T14:20:41.509Z,21.20
2018-09-29T14:23:10.025Z,21.43
2018-09-29T14:25:38.549Z,21.51
2018-09-29T14:28:07.094Z,21.70
2018-09-29T14:30:35.542Z,21.83
2018-09-29T14:33:04.093Z,22.10
2018-09-29T14:35:32.499Z,22.38
2018-09-29T14:38:01.042Z,22.68
2018-09-29T14:40:29.893Z,22.80
2018-09-29T14:42:58.342Z,22.90
2018-09-29T14:45:26.766Z,23.37
2018-09-29T14:47:55.238Z,23.85
2018-09-29T14:50:23.694Z,24.12
2018-09-29T14:52:52.317Z,24.51
2018-09-29T14:55:21.369Z,25.30
2018-09-29T14:57:49.941Z,25.78
2018-09-29T15:00:18.366Z,27.11
2018-09-29T15:02:46.870Z,28.53
2018-09-29T15:05:16.699Z,29.90
2018-09-29T15:07:45.227Z,30.68
2018-09-29T15:10:13.825Z,31.45
2018-09-29T15:12:42.343Z,32.03
2018-09-29T15:15:10.906Z,32.85
2018-09-29T15:17:39.444Z,32.86
2018-09-29T15:20:07.974Z,33.32
2018-09-29T15:22:38.522Z,33.23
2018-09-29T15:25:07.028Z,33.77
2018-09-29T15:27:35.655Z,34.82
2018-09-29T15:30:04.318Z,35.22
2018-09-29T15:32:32.746Z,34.27
2018-09-29T15:35:01.319Z,33.95
2018-09-29T15:37:29.788Z,33.36
2018-09-29T15:39:58.265Z,33.42
2018-09-29T15:42:26.711Z,33.49
2018-09-29T15:44:55.224Z,33.73
2018-09-29T15:47:23.692Z,34.37
2018-09-29T15:49:52.166Z,34.15
2018-09-29T15:52:21.426Z,32.89
2018-09-29T15:54:49.890Z,32.50
2018-09-29T15:57:18.458Z,31.22
2018-09-29T15:59:46.945Z,30.89
2018-09-29T16:02:15.383Z,30.28
2018-09-29T16:04:44.269Z,27.23
2018-09-29T16:07:13.242Z,24.77
2018-09-29T16:09:42.773Z,23.43
2018-09-29T16:12:11.186Z,22.28
2018-09-29T16:14:39.652Z,21.54
2018-09-29T16:17:08.101Z,21.15
2018-09-29T16:19:36.534Z,20.52
2018-09-29T16:22:05.034Z,20.11
2018-09-29T16:24:33.443Z,19.69
2018-09-29T16:27:01.881Z,19.34
2018-09-29T16:29:30.338Z,19.08
2018-09-29T16:31:58.888Z,18.97
2018-09-29T16:34:27.878Z,18.69
2018-09-29T16:36:56.974Z,18.48
2018-09-29T16:39:25.406Z,18.47
2018-09-29T16:41:53.898Z,18.26
2018-09-29T16:44:22.334Z,18.18
2018-09-29T16:46:50.803Z,17.97
2018-09-29T16:49:19.224Z,17.88
2018-09-29T16:51:47.726Z,17.82
2018-09-29T16:54:16.182Z,17.63
2018-09-29T16:56:44.711Z,17.46
2018-09-29T16:59:13.232Z,17.32
2018-09-29T17:01:41.761Z,17.37
2018-09-29T17:04:10.339Z,17.32
2018-09-29T17:06:38.791Z,17.23
2018-09-29T17:09:11.318Z,17.15
2018-09-29T17:11:40.362Z,17.03
2018-09-29T17:14:08.946Z,16.95
2018-09-29T17:16:37.562Z,16.91
2018-09-29T17:19:06.930Z,16.82
2018-09-29T17:21:36.125Z,16.83
2018-09-29T17:24:04.821Z,16.64
2018-09-29T17:26:33.526Z,16.61
2018-09-29T17:29:02.841Z,16.55
2018-09-29T17:31:31.429Z,16.45
2018-09-29T17:34:00.092Z,16.30
2018-09-29T17:36:28.546Z,16.29
2018-09-29T17:38:57.367Z,16.26
2018-09-29T17:41:27.424Z,16.25
2018-09-29T17:43:55.929Z,16.24
2018-09-29T17:46:24.387Z,16.23
2018-09-29T17:48:52.881Z,16.08
2018-09-29T17:51:21.308Z,16.10
2018-09-29T17:53:49.831Z,16.02
2018-09-29T17:56:18.700Z,15.97
2018-09-29T17:58:47.271Z,15.93
2018-09-29T18:01:15.773Z,15.94
2018-09-29T18:03:44.188Z,15.88
2018-09-29T18:06:13.024Z,15.76
2018-09-29T18:08:41.996Z,15.77
2018-09-29T18:11:10.488Z,15.76
2018-09-29T18:13:39.038Z,15.80
2018-09-29T18:16:07.613Z,15.76
2018-09-29T18:18:36.150Z,15.70
2018-09-29T18:21:05.358Z,15.68
2018-09-29T18:23:33.802Z,15.65
2018-09-29T18:26:02.438Z,15.61
2018-09-29T18:28:30.862Z,15.66
2018-09-29T18:30:59.319Z,15.49
2018-09-29T18:33:27.774Z,15.46
2018-09-29T18:35:56.337Z,15.46
2018-09-29T18:38:24.685Z,15.27
2018-09-29T18:40:53.137Z,15.39
2018-09-29T18:43:21.561Z,15.37
2018-09-29T18:45:50.175Z,15.35
2018-09-29T18:48:18.594Z,15.23
2018-09-29T18:50:47.067Z,15.16
2018-09-29T18:53:16.721Z,15.12
2018-09-29T18:55:45.808Z,15.06
2018-09-29T18:58:14.533Z,15.01
2018-09-29T19:00:43.243Z,15.02
2018-09-29T19:03:11.747Z,15.03
2018-09-29T19:05:40.236Z,14.90
2018-09-29T19:08:09.029Z,14.91
2018-09-29T19:10:37.515Z,14.84
2018-09-29T19:13:06.037Z,14.93
2018-09-29T19:15:34.582Z,14.87
2018-09-29T19:18:03.555Z,14.88
2018-09-29T19:20:32.010Z,14.67
2018-09-29T19:23:00.603Z,14.62
2018-09-29T19:25:29.115Z,14.59
2018-09-29T19:27:57.595Z,14.62
2018-09-29T19:30:26.051Z,14.51
2018-09-29T19:32:54.575Z,14.56
2018-09-29T19:35:23.084Z,14.47
2018-09-29T19:37:51.579Z,14.54
2018-09-29T19:40:20.062Z,14.61
2018-09-29T19:42:48.698Z,14.47
2018-09-29T19:45:17.220Z,14.49
2018-09-29T19:47:45.807Z,14.51
2018-09-29T19:50:14.423Z,14.40
2018-09-29T19:52:43.077Z,14.35
2018-09-29T19:55:11.851Z,14.43
2018-09-29T19:57:42.946Z,14.36
2018-09-29T20:00:11.593Z,14.23
2018-09-29T20:02:40.945Z,14.13
2018-09-29T20:05:10.338Z,14.16
2018-09-29T20:07:39.409Z,14.07
2018-09-29T20:10:11.840Z,14.00
2018-09-29T20:12:40.326Z,13.90
2018-09-29T20:15:08.894Z,13.92
2018-09-29T20:17:37.359Z,14.04
2018-09-29T20:20:06.956Z,13.97
2018-09-29T20:22:35.401Z,13.86
2018-09-29T20:25:04.363Z,13.90
2018-09-29T20:27:32.799Z,13.95
2018-09-29T20:30:01.276Z,13.95
2018-09-29T20:32:29.719Z,13.90
2018-09-29T20:34:58.207Z,13.84
2018-09-29T20:37:26.635Z,13.89
2018-09-29T20:39:55.123Z,13.89
2018-09-29T20:42:23.642Z,13.90
2018-09-29T20:44:52.113Z,13.78
2018-09-29T20:47:20.687Z,13.66
2018-09-29T20:49:49.210Z,13.66
2018-09-29T20:52:17.776Z,13.63
2018-09-29T20:54:46.264Z,13.58
2018-09-29T20:57:14.904Z,13.58
2018-09-29T20:59:43.427Z,13.54
2018-09-29T21:02:13.240Z,13.52
2018-09-29T21:04:41.667Z,13.53
2018-09-29T21:07:10.165Z,13.40
2018-09-29T21:09:38.593Z,13.34
2018-09-29T21:12:07.184Z,13.31
2018-09-29T21:14:35.675Z,13.39
2018-09-29T21:17:05.438Z,13.28
2018-09-29T21:19:34.029Z,13.12
2018-09-29T21:22:02.943Z,13.11
2018-09-29T21:24:31.407Z,13.16
2018-09-29T21:26:59.851Z,13.09
2018-09-29T21:29:28.287Z,13.06
2018-09-29T21:31:56.766Z,13.17
2018-09-29T21:34:25.238Z,13.04
2018-09-29T21:36:53.715Z,13.01
2018-09-29T21:39:22.187Z,13.02
2018-09-29T21:41:50.636Z,12.94
2018-09-29T21:44:19.118Z,12.96
2018-09-29T21:46:47.551Z,12.97
2018-09-29T21:49:16.028Z,12.91
2018-09-29T21:51:44.443Z,12.85
2018-09-29T21:54:12.898Z,12.86
2018-09-29T21:56:41.422Z,12.79
2018-09-29T21:59:09.888Z,12.83
2018-09-29T22:01:38.314Z,12.76
2018-09-29T22:04:06.799Z,12.74
2018-09-29T22:06:35.235Z,12.77
2018-09-29T22:09:04.011Z,12.69
2018-09-29T22:11:32.420Z,12.68
2018-09-29T22:14:00.932Z,12.71
2018-09-29T22:16:29.337Z,12.73
2018-09-29T22:18:57.749Z,12.65
2018-09-29T22:21:26.206Z,12.69
2018-09-29T22:23:54.604Z,12.56
2018-09-29T22:26:23.034Z,12.59
2018-09-29T22:28:51.460Z,12.52
2018-09-29T22:31:19.913Z,12.51
2018-09-29T22:33:48.313Z,12.52
2018-09-29T22:36:16.753Z,12.51
2018-09-29T22:38:45.179Z,12.51
2018-09-29T22:41:13.682Z,12.42
2018-09-29T22:43:44.725Z,12.41
2018-09-29T22:46:13.381Z,12.39
2018-09-29T22:48:41.813Z,12.36
2018-09-29T22:51:10.406Z,12.33
2018-09-29T22:53:38.799Z,12.45
2018-09-29T22:56:07.413Z,12.37
2018-09-29T22:58:35.937Z,12.29
2018-09-29T23:01:04.402Z,12.31
2018-09-29T23:03:32.882Z,12.26
2018-09-29T23:06:01.978Z,12.26
2018-09-29T23:08:30.458Z,12.24
2018-09-29T23:10:58.895Z,12.16
2018-09-29T23:13:27.334Z,12.23
2018-09-29T23:15:55.751Z,12.13
2018-09-29T23:18:24.229Z,12.02
2018-09-29T23:20:52.674Z,12.06
2018-09-29T23:23:21.143Z,11.97
2018-09-29T23:25:49.598Z,12.05
2018-09-29T23:28:18.110Z,11.96
2018-09-29T23:30:46.559Z,11.92
2018-09-29T23:33:15.065Z,11.94
2018-09-29T23:35:43.469Z,11.84
2018-09-29T23:55:28.703Z,11.89
2018-09-29T23:57:57.559Z,11.81
